Time;durP1;ratioP1;P1;durP2;ratioP2;P2;SDS_P1;SDS_P2;PMS_P1;PMS_P2;Temp;Humidity;BMP_temperature;BMP_pressure;BME280_temperature;BME280_humidity;BME280_pressure;Samples;Min_cycle;Max_cycle;Signal;HPM_P1;HPM_P2
2021/05/05 00:01:16;;;;;;;11.23;7.47;;;13.40;99.90;;;;;;5034169;28;20632;-68
2021/05/05 00:03:42;;;;;;;11.00;7.07;;;13.30;99.90;;;;;;5035228;28;20285;-68
2021/05/05 00:06:10;;;;;;;10.93;7.40;;;13.20;99.90;;;;;;5035343;28;20399;-68
2021/05/05 00:08:36;;;;;;;9.03;6.90;;;13.20;99.90;;;;;;5035457;28;20487;-68
2021/05/05 00:11:02;;;;;;;10.20;6.70;;;13.20;99.90;;;;;;5035302;28;20400;-68
2021/05/05 00:13:27;;;;;;;7.80;6.33;;;13.20;99.90;;;;;;5035183;28;20259;-67
2021/05/05 00:15:53;;;;;;;8.47;6.70;;;13.20;99.90;;;;;;5035173;28;20170;-69
2021/05/05 00:18:18;;;;;;;7.60;5.97;;;13.20;99.90;;;;;;5035296;28;20264;-69
2021/05/05 00:20:44;;;;;;;8.10;6.40;;;13.30;99.90;;;;;;5035035;28;20209;-67
2021/05/05 00:23:10;;;;;;;6.63;5.43;;;13.40;99.90;;;;;;5033647;28;20213;-68
2021/05/05 00:25:35;;;;;;;8.13;5.90;;;13.50;99.90;;;;;;5035018;28;20174;-70
2021/05/05 00:28:01;;;;;;;10.13;5.37;;;13.50;99.90;;;;;;5034946;28;20218;-67
2021/05/05 00:30:27;;;;;;;10.23;6.50;;;13.60;99.90;;;;;;5034919;28;20163;-68
2021/05/05 00:32:53;;;;;;;8.73;5.50;;;13.60;99.90;;;;;;5034059;28;20609;-69
2021/05/05 00:35:18;;;;;;;7.73;5.77;;;13.60;99.90;;;;;;5034928;28;20400;-68
2021/05/05 00:37:45;;;;;;;7.00;5.50;;;13.50;99.90;;;;;;5033357;28;20452;-67
2021/05/05 00:40:12;;;;;;;8.33;6.20;;;13.60;99.90;;;;;;5050050;28;20175;-68
2021/05/05 00:42:38;;;;;;;7.87;6.20;;;13.60;99.90;;;;;;5034513;28;20438;-68
2021/05/05 00:45:07;;;;;;;9.87;6.30;;;13.60;99.90;;;;;;5034621;28;20415;-69
2021/05/05 00:47:33;;;;;;;11.40;5.40;;;13.50;99.90;;;;;;5032990;28;20573;-67
2021/05/05 00:49:58;;;;;;;6.50;5.17;;;13.60;99.90;;;;;;5033223;28;20546;-68
2021/05/05 00:52:25;;;;;;;6.43;4.63;;;13.60;99.90;;;;;;5034476;28;20593;-67
2021/05/05 00:54:51;;;;;;;6.63;5.17;;;13.70;99.90;;;;;;5033175;28;20171;-68
2021/05/05 00:57:17;;;;;;;6.77;5.67;;;13.70;99.90;;;;;;5034255;28;20486;-67
2021/05/05 00:59:42;;;;;;;10.30;6.40;;;13.60;99.90;;;;;;5034499;28;20404;-68
2021/05/05 01:02:09;;;;;;;6.37;5.43;;;13.60;99.90;;;;;;5033038;28;20444;-68
2021/05/05 01:04:34;;;;;;;7.00;4.40;;;13.60;99.90;;;;;;5034685;28;20205;-69
2021/05/05 01:07:00;;;;;;;6.83;5.20;;;13.70;99.90;;;;;;5034164;28;20404;-68
2021/05/05 01:09:27;;;;;;;7.10;5.27;;;13.60;99.90;;;;;;5033056;28;20570;-68
2021/05/05 01:11:54;;;;;;;7.33;4.93;;;13.60;99.90;;;;;;5034088;28;20175;-69
2021/05/05 01:14:20;;;;;;;8.10;4.97;;;13.40;99.90;;;;;;5034465;28;20454;-69
2021/05/05 01:16:46;;;;;;;7.97;5.10;;;13.30;99.90;;;;;;5034055;28;20411;-70
2021/05/05 01:19:12;;;;;;;5.87;5.00;;;13.30;99.90;;;;;;5032836;28;20960;-67
2021/05/05 01:21:37;;;;;;;10.03;5.23;;;13.30;99.90;;;;;;5034012;28;20186;-69
2021/05/05 01:24:05;;;;;;;8.60;5.13;;;13.30;99.90;;;;;;5034498;28;20592;-68
2021/05/05 01:26:30;;;;;;;7.50;4.70;;;13.30;99.90;;;;;;5033948;28;20611;-67
2021/05/05 01:29:00;;;;;;;8.87;6.00;;;13.20;99.90;;;;;;5032636;28;20510;-69
2021/05/05 01:31:27;;;;;;;6.03;4.50;;;13.10;99.90;;;;;;5033944;28;20218;-68
2021/05/05 01:33:53;;;;;;;7.77;4.70;;;13.10;99.90;;;;;;5034161;28;20475;-69
2021/05/05 01:36:21;;;;;;;5.67;5.13;;;13.10;99.90;;;;;;5033696;28;20404;-67
2021/05/05 01:38:48;;;;;;;6.17;4.90;;;13.10;99.90;;;;;;5032407;28;20447;-67
2021/05/05 01:41:15;;;;;;;7.40;4.83;;;13.10;99.90;;;;;;5033810;28;20407;-68
2021/05/05 01:43:40;;;;;;;7.53;5.60;;;13.10;99.90;;;;;;5033759;28;20447;-68
2021/05/05 01:46:06;;;;;;;9.17;5.87;;;13.00;99.90;;;;;;5033683;28;20399;-68
2021/05/05 01:48:32;;;;;;;7.73;5.57;;;12.90;99.90;;;;;;5033155;28;20242;-67
2021/05/05 01:50:58;;;;;;;7.87;5.67;;;12.90;99.90;;;;;;5033581;28;20984;-69
2021/05/05 01:53:23;;;;;;;10.30;6.83;;;12.80;99.90;;;;;;5032359;28;20206;-69
2021/05/05 01:55:49;;;;;;;8.53;5.80;;;12.80;99.90;;;;;;5033606;28;20545;-70
2021/05/05 01:58:15;;;;;;;10.87;5.80;;;12.70;99.90;;;;;;5033737;28;20675;-68
2021/05/05 02:00:41;;;;;;;8.53;5.83;;;12.60;99.90;;;;;;5033504;28;20170;-68
2021/05/05 02:03:07;;;;;;;7.13;5.80;;;12.60;99.90;;;;;;5033630;28;20466;-67
2021/05/05 02:05:33;;;;;;;7.73;5.53;;;12.60;99.90;;;;;;5033578;28;20415;-68
2021/05/05 02:07:59;;;;;;;7.73;5.20;;;12.50;99.90;;;;;;5033312;28;20455;-67
2021/05/05 02:10:25;;;;;;;7.40;5.23;;;12.50;99.90;;;;;;5033464;28;20182;-67
2021/05/05 02:12:51;;;;;;;6.20;4.93;;;12.50;99.90;;;;;;5033355;28;20527;-69
2021/05/05 02:15:21;;;;;;;10.13;6.23;;;12.50;99.90;;;;;;5033476;28;20229;-69
2021/05/05 02:17:51;;;;;;;9.10;4.93;;;12.50;99.90;;;;;;5033458;28;20195;-67
2021/05/05 02:20:19;;;;;;;6.93;4.90;;;12.50;99.90;;;;;;5033323;28;20412;-67
2021/05/05 02:22:46;;;;;;;6.33;5.10;;;12.60;99.90;;;;;;5033292;28;20435;-68
2021/05/05 02:25:12;;;;;;;6.50;5.40;;;12.60;99.90;;;;;;5033083;28;20408;-67
2021/05/05 02:27:39;;;;;;;9.90;5.53;;;12.70;99.90;;;;;;5033186;28;20477;-68
2021/05/05 02:30:09;;;;;;;6.47;4.97;;;12.60;99.90;;;;;;5031935;28;20524;-69
2021/05/05 02:32:36;;;;;;;9.33;5.60;;;12.60;99.90;;;;;;5033175;28;20440;-68
2021/05/05 02:35:04;;;;;;;10.83;5.50;;;12.50;99.90;;;;;;5033318;28;20456;-68
2021/05/05 02:37:31;;;;;;;9.30;5.53;;;12.60;99.90;;;;;;5033089;28;20419;-68
2021/05/05 02:39:56;;;;;;;6.27;4.80;;;12.50;99.90;;;;;;5033149;28;20416;-67
2021/05/05 02:42:22;;;;;;;8.53;5.70;;;12.60;99.90;;;;;;5031799;28;20796;-67
2021/05/05 02:44:49;;;;;;;9.23;5.20;;;12.60;99.90;;;;;;5033138;28;20178;-69
2021/05/05 02:47:21;;;;;;;9.90;5.50;;;12.60;99.90;;;;;;5032986;28;20253;-68
2021/05/05 02:49:46;;;;;;;6.63;5.00;;;12.70;99.90;;;;;;5031725;28;21075;-68
2021/05/05 02:52:12;;;;;;;8.40;5.23;;;12.60;99.90;;;;;;5033006;28;20442;-67
2021/05/05 02:54:38;;;;;;;6.40;4.63;;;12.60;99.90;;;;;;5031645;28;20252;-68
2021/05/05 02:57:06;;;;;;;6.47;5.30;;;12.60;99.90;;;;;;5035868;28;20396;-68
2021/05/05 02:59:32;;;;;;;8.77;5.67;;;12.60;99.90;;;;;;5037006;28;20534;-69
2021/05/05 03:01:57;;;;;;;8.90;5.47;;;12.50;99.90;;;;;;5036507;28;20450;-69
2021/05/05 03:04:24;;;;;;;10.07;5.50;;;12.50;99.90;;;;;;5036988;28;20840;-68
2021/05/05 03:06:50;;;;;;;9.23;5.47;;;12.40;99.90;;;;;;5036502;28;20166;-67
2021/05/05 03:09:22;;;;;;;9.03;5.10;;;12.40;99.90;;;;;;5035278;28;20280;-69
2021/05/05 03:11:47;;;;;;;7.70;4.70;;;12.30;99.90;;;;;;5036491;28;20917;-67
2021/05/05 03:14:13;;;;;;;6.50;4.83;;;12.20;99.90;;;;;;5036710;28;20467;-67
2021/05/05 03:16:39;;;;;;;6.60;5.10;;;12.20;99.90;;;;;;5036416;28;20166;-68
2021/05/05 03:19:05;;;;;;;7.13;5.30;;;12.10;99.90;;;;;;5034788;28;20439;-69
2021/05/05 03:21:31;;;;;;;5.83;5.23;;;12.20;99.90;;;;;;5034963;28;20422;-68
2021/05/05 03:23:57;;;;;;;8.67;6.13;;;12.20;99.90;;;;;;5034938;28;20202;-67
2021/05/05 03:26:22;;;;;;;8.23;4.97;;;12.20;99.90;;;;;;5036153;28;20412;-69
2021/05/05 03:28:48;;;;;;;7.47;4.87;;;12.10;99.90;;;;;;5034671;28;20225;-68
2021/05/05 03:31:15;;;;;;;6.17;5.57;;;12.00;99.90;;;;;;5036119;28;20177;-69
2021/05/05 03:33:42;;;;;;;6.50;5.80;;;12.00;99.90;;;;;;5034719;28;20572;-68
2021/05/05 03:36:07;;;;;;;12.20;5.20;;;11.90;99.90;;;;;;5035979;28;20979;-67
2021/05/05 03:38:33;;;;;;;9.53;5.20;;;11.90;99.90;;;;;;5036046;28;20447;-68
2021/05/05 03:40:59;;;;;;;10.07;5.33;;;11.90;99.90;;;;;;5035823;28;20175;-68
2021/05/05 03:43:24;;;;;;;5.70;4.73;;;12.00;99.90;;;;;;5035766;28;20209;-67
2021/05/05 03:45:50;;;;;;;6.30;5.57;;;11.90;99.90;;;;;;5035742;28;20220;-68
2021/05/05 03:48:16;;;;;;;7.63;5.73;;;11.90;99.90;;;;;;5035448;28;20236;-68
2021/05/05 03:50:42;;;;;;;9.20;5.60;;;11.90;99.90;;;;;;5035702;28;20175;-68
2021/05/05 03:53:07;;;;;;;10.80;6.20;;;12.00;99.90;;;;;;5035673;28;20859;-67
2021/05/05 03:55:33;;;;;;;7.70;6.20;;;12.00;99.90;;;;;;5034124;28;20954;-68
2021/05/05 03:57:59;;;;;;;8.00;6.40;;;12.00;99.90;;;;;;5035546;28;20221;-68
2021/05/05 04:00:25;;;;;;;10.67;5.73;;;12.00;99.90;;;;;;5035625;28;20347;-69
2021/05/05 04:02:51;;;;;;;10.07;6.27;;;11.90;99.90;;;;;;5034064;28;20977;-67
2021/05/05 04:05:16;;;;;;;15.87;10.67;;;11.90;99.90;;;;;;5035401;28;20399;-68
2021/05/05 04:07:42;;;;;;;9.97;8.60;;;11.80;99.90;;;;;;5033971;28;20210;-68
2021/05/05 04:10:08;;;;;;;13.07;8.67;;;12.00;99.90;;;;;;5035186;28;20210;-67
2021/05/05 04:12:35;;;;;;;10.90;7.70;;;12.20;99.90;;;;;;5034753;28;20265;-68
2021/05/05 04:15:01;;;;;;;10.68;7.63;;;12.30;99.90;;;;;;5035240;28;20493;-67
2021/05/05 04:17:26;;;;;;;10.87;7.60;;;12.30;99.90;;;;;;5035019;28;20202;-68
2021/05/05 04:19:54;;;;;;;15.37;8.70;;;12.30;99.90;;;;;;5035103;28;20722;-68
2021/05/05 04:22:20;;;;;;;13.43;8.27;;;12.40;99.90;;;;;;5034857;28;20224;-68
2021/05/05 04:24:46;;;;;;;12.80;7.82;;;12.30;99.90;;;;;;5034981;28;20220;-68
2021/05/05 04:27:12;;;;;;;11.63;7.97;;;12.30;99.90;;;;;;5034910;28;20170;-70
2021/05/05 04:29:38;;;;;;;16.67;7.03;;;12.40;99.90;;;;;;5034691;28;20214;-67
2021/05/05 04:32:04;;;;;;;9.87;6.73;;;12.40;99.90;;;;;;5043221;28;20841;-70
2021/05/05 04:34:30;;;;;;;10.70;6.60;;;12.50;99.90;;;;;;5054608;28;20201;-67
2021/05/05 04:36:55;;;;;;;11.00;6.17;;;12.50;99.90;;;;;;5036796;28;20429;-68
2021/05/05 04:39:21;;;;;;;7.90;5.43;;;12.50;99.90;;;;;;5054789;28;20309;-67
2021/05/05 04:41:47;;;;;;;15.27;6.77;;;12.60;99.90;;;;;;5053408;28;20189;-68
2021/05/05 04:44:13;;;;;;;9.80;6.17;;;12.70;99.90;;;;;;5054793;28;20288;-68
2021/05/05 04:46:39;;;;;;;17.80;10.60;;;12.90;99.90;;;;;;5053683;28;20209;-67
2021/05/05 04:49:04;;;;;;;10.80;7.47;;;13.00;99.90;;;;;;5053828;28;20987;-67
2021/05/05 04:51:30;;;;;;;8.27;5.53;;;13.00;99.90;;;;;;5054963;28;20178;-68
2021/05/05 04:53:55;;;;;;;5.80;4.80;;;13.20;99.90;;;;;;5053310;28;20198;-68
2021/05/05 04:56:21;;;;;;;9.63;5.70;;;13.20;99.90;;;;;;5053388;28;20256;-68
2021/05/05 04:58:47;;;;;;;5.93;4.77;;;13.40;99.90;;;;;;5052788;28;20689;-68
2021/05/05 05:01:12;;;;;;;7.87;5.30;;;13.50;99.90;;;;;;5054403;28;20521;-68
2021/05/05 05:03:38;;;;;;;7.00;4.20;;;13.60;99.90;;;;;;5052913;28;20626;-67
2021/05/05 05:06:04;;;;;;;7.30;4.70;;;13.70;99.90;;;;;;5052076;28;20273;-68
2021/05/05 05:08:29;;;;;;;4.77;4.27;;;13.80;99.90;;;;;;5053184;28;20217;-68
2021/05/05 05:10:55;;;;;;;7.33;4.30;;;13.90;99.90;;;;;;5051653;28;20629;-68
2021/05/05 05:13:21;;;;;;;6.67;4.67;;;14.00;99.90;;;;;;5051011;28;20712;-67
2021/05/05 05:15:46;;;;;;;5.13;4.10;;;14.00;99.90;;;;;;5049223;28;20423;-68
2021/05/05 05:18:12;;;;;;;6.13;4.73;;;14.20;99.90;;;;;;5037546;28;20226;-69
2021/05/05 05:20:39;;;;;;;4.60;3.93;;;14.30;99.90;;;;;;5040084;28;20186;-68
2021/05/05 05:23:04;;;;;;;4.27;3.30;;;14.40;99.90;;;;;;5047274;28;20447;-69
2021/05/05 05:25:30;;;;;;;17.87;10.87;;;14.50;99.90;;;;;;5046864;28;20410;-69
2021/05/05 05:27:55;;;;;;;5.30;4.30;;;14.60;99.90;;;;;;5051883;28;20216;-68
2021/05/05 05:30:23;;;;;;;4.03;3.40;;;14.80;99.90;;;;;;5049405;28;20189;-67
2021/05/05 05:32:49;;;;;;;7.07;4.10;;;14.70;99.90;;;;;;5033151;28;20233;-68
2021/05/05 05:35:15;;;;;;;4.53;3.53;;;14.80;99.90;;;;;;5039840;28;20931;-69
2021/05/05 05:37:41;;;;;;;5.53;4.00;;;14.90;99.90;;;;;;5039206;28;20490;-70
2021/05/05 05:40:08;;;;;;;5.53;3.23;;;15.00;99.90;;;;;;5038219;28;20474;-69
2021/05/05 05:42:34;;;;;;;5.40;3.90;;;15.10;99.90;;;;;;5038755;28;20976;-69
2021/05/05 05:45:00;;;;;;;7.87;6.10;;;15.20;99.90;;;;;;5048287;28;20434;-68
2021/05/05 05:47:26;;;;;;;4.80;4.40;;;15.40;99.90;;;;;;5047046;28;20789;-69
2021/05/05 05:49:51;;;;;;;4.47;3.27;;;15.60;99.90;;;;;;5044121;28;20225;-69
2021/05/05 05:52:17;;;;;;;4.27;3.20;;;15.90;99.90;;;;;;5046721;28;20181;-67
2021/05/05 05:54:43;;;;;;;3.53;3.10;;;16.00;99.90;;;;;;5047994;28;20231;-69
2021/05/05 05:57:09;;;;;;;5.90;3.30;;;16.00;99.90;;;;;;5044254;28;20411;-68
2021/05/05 05:59:34;;;;;;;4.00;3.30;;;16.10;99.90;;;;;;5047855;28;20220;-67
2021/05/05 06:02:00;;;;;;;4.20;3.13;;;16.20;99.90;;;;;;5039814;28;20949;-68
2021/05/05 06:04:26;;;;;;;6.83;3.00;;;16.40;99.90;;;;;;5033533;28;20247;-69
2021/05/05 06:06:52;;;;;;;3.23;2.53;;;16.60;99.90;;;;;;5045808;28;20411;-68
2021/05/05 06:09:17;;;;;;;6.03;2.60;;;16.80;99.90;;;;;;5040983;28;20304;-68
2021/05/05 06:11:43;;;;;;;4.20;2.80;;;16.70;99.90;;;;;;5047792;28;20660;-69
2021/05/05 06:14:09;;;;;;;4.17;2.70;;;16.80;99.90;;;;;;5044274;28;20268;-70
2021/05/05 06:16:34;;;;;;;3.20;2.90;;;16.90;99.90;;;;;;5043363;28;20182;-68
2021/05/05 06:19:00;;;;;;;6.17;3.33;;;17.10;99.90;;;;;;5044867;28;20936;-69
2021/05/05 06:21:26;;;;;;;4.30;2.70;;;17.20;99.90;;;;;;5039330;28;20210;-69
2021/05/05 06:23:52;;;;;;;7.10;3.00;;;17.50;99.90;;;;;;5043750;28;20205;-68
2021/05/05 06:26:18;;;;;;;4.73;2.20;;;17.40;99.90;;;;;;5044832;28;20186;-70
2021/05/05 06:28:44;;;;;;;4.67;2.70;;;17.50;99.90;;;;;;5041755;28;20478;-68
2021/05/05 06:31:09;;;;;;;6.27;3.03;;;17.50;99.90;;;;;;5052562;28;20403;-70
2021/05/05 06:33:36;;;;;;;2.93;2.20;;;17.40;99.90;;;;;;5055539;28;20205;-68
2021/05/05 06:36:02;;;;;;;3.10;2.80;;;17.60;99.90;;;;;;5054868;28;20185;-69
2021/05/05 06:38:28;;;;;;;5.13;2.70;;;17.50;99.90;;;;;;5038376;28;20454;-67
2021/05/05 06:40:53;;;;;;;4.57;2.60;;;17.60;99.90;;;;;;5050600;28;20411;-70
2021/05/05 06:43:19;;;;;;;3.20;2.37;;;17.80;99.90;;;;;;5051591;28;20202;-67
2021/05/05 06:45:45;;;;;;;2.50;2.27;;;18.00;99.90;;;;;;5045735;28;20190;-68
2021/05/05 06:48:10;;;;;;;13.73;2.80;;;18.00;99.80;;;;;;5033813;28;20575;-70
2021/05/05 06:50:36;;;;;;;6.93;3.13;;;18.10;99.90;;;;;;5038531;28;20182;-68
2021/05/05 06:53:02;;;;;;;4.60;2.53;;;18.20;99.70;;;;;;5047464;28;20213;-68
2021/05/05 06:55:27;;;;;;;7.90;2.70;;;18.10;99.40;;;;;;5036186;28;20198;-69
2021/05/05 06:57:54;;;;;;;3.37;2.87;;;18.10;99.50;;;;;;5043323;28;20684;-67
2021/05/05 07:00:21;;;;;;;20.30;2.97;;;18.20;99.40;;;;;;5042287;28;20527;-70
2021/05/05 07:02:47;;;;;;;3.57;3.10;;;18.40;99.40;;;;;;5049612;28;20529;-70
2021/05/05 07:05:13;;;;;;;4.83;2.43;;;18.60;98.90;;;;;;5044947;28;20498;-69
2021/05/05 07:07:39;;;;;;;4.90;2.77;;;18.50;98.60;;;;;;5040570;28;20230;-70
2021/05/05 07:10:05;;;;;;;9.87;2.90;;;18.60;98.50;;;;;;5074710;28;20470;-70
2021/05/05 07:12:31;;;;;;;4.43;2.37;;;18.60;98.40;;;;;;5045123;28;20433;-69
2021/05/05 07:14:56;;;;;;;5.73;2.53;;;18.80;98.20;;;;;;5046086;28;20824;-69
2021/05/05 07:17:22;;;;;;;2.73;2.53;;;18.90;98.20;;;;;;5049707;28;20187;-69
2021/05/05 07:19:50;;;;;;;5.77;2.40;;;18.80;98.00;;;;;;5052320;28;20203;-69
2021/05/05 07:22:17;;;;;;;5.20;2.40;;;18.70;98.20;;;;;;5055794;28;20702;-68
2021/05/05 07:24:43;;;;;;;9.47;3.17;;;18.90;97.40;;;;;;5053807;28;20507;-68
2021/05/05 07:27:08;;;;;;;4.77;2.50;;;19.10;97.00;;;;;;5053871;28;21014;-68
2021/05/05 07:29:34;;;;;;;4.83;2.50;;;19.10;96.70;;;;;;5055551;28;20472;-70
2021/05/05 07:32:00;;;;;;;4.23;2.60;;;19.10;96.40;;;;;;5043267;28;20258;-70
2021/05/05 07:34:26;;;;;;;7.13;3.37;;;19.20;96.10;;;;;;5047636;28;20212;-68
2021/05/05 07:36:55;;;;;;;13.73;2.97;;;19.30;95.90;;;;;;5052018;28;20179;-68
2021/05/05 07:48:47;;;;;;;4.07;2.50;;;19.30;95.20;;;;;;5047104;28;20834;-68
2021/05/05 07:50:59;;;;;;;4.70;2.63;;;19.60;95.40;;;;;;5040777;28;20801;-69
2021/05/05 07:53:26;;;;;;;4.40;2.20;;;20.00;95.20;;;;;;5076314;28;20493;-70
2021/05/05 07:55:55;;;;;;;3.57;2.50;;;20.00;95.10;;;;;;5039643;28;20207;-68
2021/05/05 07:58:25;;;;;;;2.60;2.40;;;20.00;94.70;;;;;;5041077;28;20823;-68
2021/05/05 08:00:50;;;;;;;3.53;2.20;;;19.90;93.60;;;;;;5036818;28;20429;-67
2021/05/05 08:03:16;;;;;;;3.07;2.60;;;20.10;94.60;;;;;;5075615;28;20508;-71
2021/05/05 08:05:42;;;;;;;8.20;3.10;;;20.00;93.10;;;;;;5042713;28;20182;-69
2021/05/05 08:08:07;;;;;;;10.43;2.60;;;20.00;92.80;;;;;;5040887;28;20212;-69
2021/05/05 08:10:33;;;;;;;4.40;2.50;;;19.80;92.50;;;;;;5042976;28;20558;-67
2021/05/05 08:12:58;;;;;;;3.97;2.67;;;20.00;92.80;;;;;;5047434;28;20205;-70
2021/05/05 08:15:27;;;;;;;13.67;3.03;;;20.00;92.70;;;;;;5042908;28;20201;-69
2021/05/05 08:17:52;;;;;;;8.73;2.67;;;20.00;91.90;;;;;;5039221;28;20210;-68
2021/05/05 08:20:19;;;;;;;5.77;2.90;;;19.90;91.80;;;;;;5038376;28;20522;-69
2021/05/05 08:22:45;;;;;;;3.57;2.63;;;20.10;92.00;;;;;;5054503;28;20201;-68
2021/05/05 08:25:11;;;;;;;3.80;2.20;;;20.10;91.80;;;;;;5053125;28;20410;-68
2021/05/05 08:27:37;;;;;;;7.73;2.50;;;20.20;91.80;;;;;;5053021;28;20500;-68
2021/05/05 08:30:03;;;;;;;5.13;2.73;;;20.20;91.60;;;;;;5044638;28;20476;-69
2021/05/05 08:32:29;;;;;;;5.00;3.27;;;20.10;91.70;;;;;;5049690;28;20553;-69
2021/05/05 08:34:55;;;;;;;2.47;2.20;;;20.40;92.10;;;;;;5045107;28;20419;-70
2021/05/05 08:37:21;;;;;;;5.07;2.30;;;20.50;91.00;;;;;;5051279;28;20178;-68
2021/05/05 08:39:47;;;;;;;3.40;2.13;;;20.60;90.90;;;;;;5039284;28;20186;-69
2021/05/05 08:42:15;;;;;;;4.70;2.30;;;20.50;90.80;;;;;;5044755;28;20786;-70
2021/05/05 08:44:44;;;;;;;6.60;2.60;;;20.40;90.50;;;;;;5044466;28;20513;-68
2021/05/05 08:47:10;;;;;;;2.70;2.20;;;20.40;90.30;;;;;;5040933;28;20466;-68
2021/05/05 08:49:36;;;;;;;2.60;2.30;;;20.60;90.90;;;;;;5042230;28;20534;-70
2021/05/05 08:52:01;;;;;;;2.93;1.93;;;20.40;90.50;;;;;;5046546;28;20422;-67
2021/05/05 08:54:27;;;;;;;3.40;2.53;;;20.40;90.40;;;;;;5044476;28;20252;-68
2021/05/05 08:56:53;;;;;;;5.67;2.03;;;20.90;90.30;;;;;;5053320;28;20581;-69
2021/05/05 08:59:18;;;;;;;5.60;2.30;;;21.00;90.50;;;;;;5030587;28;20303;-68
2021/05/05 09:01:46;;;;;;;4.60;2.27;;;21.20;90.00;;;;;;5042604;28;20229;-70
2021/05/05 09:04:13;;;;;;;3.13;1.90;;;20.90;89.00;;;;;;5041388;28;20214;-68
2021/05/05 09:06:55;;;;;;;7.83;2.60;;;20.50;88.50;;;;;;5043059;28;20459;-69
2021/05/05 09:09:31;;;;;;;5.00;2.67;;;20.70;89.70;;;;;;5049479;28;20478;-70
2021/05/05 09:11:57;;;;;;;2.40;2.20;;;20.70;88.10;;;;;;5045134;28;20938;-70
2021/05/05 09:14:23;;;;;;;2.40;2.20;;;20.60;88.10;;;;;;5046650;28;20461;-69
2021/05/05 09:16:49;;;;;;;3.83;2.50;;;20.60;88.50;;;;;;5034792;28;20404;-69
2021/05/05 09:19:14;;;;;;;2.90;2.20;;;20.90;88.60;;;;;;5072192;28;20209;-69
2021/05/05 09:21:40;;;;;;;11.97;2.60;;;21.00;86.00;;;;;;5046746;28;20186;-68
2021/05/05 09:24:29;;;;;;;7.23;2.60;;;20.60;87.40;;;;;;5044871;28;20566;-69
2021/05/05 09:27:08;;;;;;;5.47;2.60;;;20.70;86.50;;;;;;5049000;28;20265;-69
2021/05/05 09:29:48;;;;;;;4.33;2.70;;;20.80;86.70;;;;;;5044836;28;20519;-70
2021/05/05 09:32:21;;;;;;;2.10;2.00;;;20.90;87.10;;;;;;5037897;28;20459;-68
2021/05/05 09:35:02;;;;;;;2.80;2.60;;;20.70;86.80;;;;;;5041776;28;20438;-68
2021/05/05 09:37:28;;;;;;;3.30;2.30;;;21.00;87.70;;;;;;5043764;28;20953;-68
2021/05/05 09:40:07;;;;;;;4.40;2.20;;;21.40;83.40;;;;;;5036632;28;20466;-68
2021/05/05 09:42:34;;;;;;;3.80;2.40;;;21.40;84.90;;;;;;5043065;28;20690;-68
2021/05/05 09:45:11;;;;;;;2.90;2.53;;;21.40;82.30;;;;;;5042500;28;20435;-69
2021/05/05 09:47:46;;;;;;;2.83;2.20;;;21.30;81.60;;;;;;5043856;28;20496;-70
2021/05/05 09:50:35;;;;;;;3.40;2.30;;;21.40;81.00;;;;;;5005802;28;20872;-70
2021/05/05 09:53:19;;;;;;;3.90;2.13;;;21.50;82.50;;;;;;5000970;28;20805;-69
2021/05/05 09:55:51;;;;;;;3.57;3.27;;;21.50;82.60;;;;;;4998424;28;20443;-70
2021/05/05 09:58:29;;;;;;;3.00;2.23;;;21.40;81.80;;;;;;5002371;28;20472;-69
2021/05/05 10:01:04;;;;;;;2.47;2.30;;;21.40;79.90;;;;;;4994028;28;20437;-68
2021/05/05 10:03:41;;;;;;;5.57;2.50;;;21.40;79.70;;;;;;5002020;28;20452;-68
2021/05/05 10:06:26;;;;;;;6.00;2.93;;;21.80;79.80;;;;;;5006919;28;20444;-70
2021/05/05 10:09:11;;;;;;;2.80;2.60;;;21.60;77.80;;;;;;5002628;28;20517;-68
2021/05/05 10:11:41;;;;;;;6.73;2.60;;;21.40;78.00;;;;;;5009595;28;20498;-69
2021/05/05 10:14:12;;;;;;;3.80;2.30;;;21.70;78.00;;;;;;5008299;28;20980;-70
2021/05/05 10:16:40;;;;;;;3.27;2.10;;;21.60;78.30;;;;;;5007278;28;20467;-68
2021/05/05 10:19:08;;;;;;;5.43;2.50;;;21.50;78.40;;;;;;5012757;28;21013;-67
2021/05/05 10:21:39;;;;;;;8.70;2.30;;;21.80;77.30;;;;;;5002140;28;20433;-69
2021/05/05 10:24:07;;;;;;;7.53;2.43;;;21.80;75.90;;;;;;5010250;28;20448;-69
2021/05/05 10:26:33;;;;;;;2.50;2.00;;;21.70;73.10;;;;;;5001402;28;20569;-70
2021/05/05 10:28:59;;;;;;;2.17;1.90;;;21.70;75.30;;;;;;5000588;28;20480;-68
2021/05/05 10:31:28;;;;;;;4.10;2.50;;;21.60;75.10;;;;;;5003102;28;20428;-68
2021/05/05 10:33:59;;;;;;;3.00;2.50;;;22.10;77.10;;;;;;5003355;28;20476;-69
2021/05/05 10:36:33;;;;;;;4.03;2.63;;;22.40;75.90;;;;;;4999899;28;20431;-68
2021/05/05 10:39:01;;;;;;;2.00;1.87;;;22.10;75.50;;;;;;4997273;28;20504;-70
2021/05/05 10:41:28;;;;;;;2.97;2.30;;;22.20;73.00;;;;;;5002794;28;20440;-68
2021/05/05 10:43:59;;;;;;;2.40;1.87;;;22.20;73.70;;;;;;5002444;28;20513;-69
2021/05/05 10:46:36;;;;;;;7.50;3.10;;;21.80;74.10;;;;;;5002191;28;20433;-68
2021/05/05 10:49:06;;;;;;;2.53;2.30;;;22.00;74.00;;;;;;5028438;28;20530;-68
2021/05/05 10:51:49;;;;;;;10.37;2.00;;;22.20;73.40;;;;;;5051130;28;20829;-70
2021/05/05 10:54:22;;;;;;;3.33;3.03;;;22.40;73.40;;;;;;5049001;28;20451;-68
2021/05/05 10:57:10;;;;;;;6.77;3.57;;;22.30;73.50;;;;;;5052143;28;20474;-68
2021/05/05 10:59:58;;;;;;;2.27;2.07;;;22.30;72.60;;;;;;5054769;28;20454;-68
2021/05/05 11:02:49;;;;;;;3.53;2.60;;;22.40;73.60;;;;;;5035505;28;20438;-68
2021/05/05 11:05:28;;;;;;;2.67;2.03;;;22.50;73.90;;;;;;5038747;28;20439;-68
2021/05/05 11:07:58;;;;;;;4.53;2.20;;;22.50;74.50;;;;;;5039582;28;21006;-69
2021/05/05 11:12:59;;;;;;;2.73;1.73;;;22.20;74.20;;;;;;5041433;28;20545;-70
2021/05/05 11:15:40;;;;;;;2.27;1.80;;;22.00;73.60;;;;;;5044868;28;20787;-68
2021/05/05 11:18:24;;;;;;;1.83;1.73;;;21.90;73.80;;;;;;5048558;28;20454;-68
2021/05/05 11:21:01;;;;;;;4.93;2.20;;;22.30;73.40;;;;;;5050587;28;20522;-68
2021/05/05 11:23:36;;;;;;;3.00;2.10;;;22.10;71.60;;;;;;5050086;28;20963;-68
2021/05/05 11:26:17;;;;;;;2.73;1.63;;;22.40;72.20;;;;;;5036290;28;20810;-69
2021/05/05 11:29:01;;;;;;;3.00;2.50;;;22.30;72.30;;;;;;5036976;28;20470;-67
2021/05/05 11:31:45;;;;;;;8.13;2.10;;;22.80;72.40;;;;;;5078451;28;20462;-70
2021/05/05 11:34:33;;;;;;;3.20;1.93;;;22.80;71.70;;;;;;5046499;28;20799;-69
2021/05/05 11:37:11;;;;;;;10.93;2.50;;;22.50;70.00;;;;;;5038961;28;20410;-70
2021/05/05 11:39:46;;;;;;;3.23;1.73;;;22.80;72.30;;;;;;5043484;28;20439;-70
2021/05/05 11:42:15;;;;;;;2.10;1.90;;;22.40;69.10;;;;;;5048650;28;20421;-68
2021/05/05 11:44:53;;;;;;;3.70;1.77;;;22.80;70.40;;;;;;5045703;28;20468;-70
2021/05/05 11:47:33;;;;;;;2.00;1.80;;;22.90;69.50;;;;;;5046515;28;20440;-68
2021/05/05 11:50:09;;;;;;;2.53;2.10;;;22.60;70.40;;;;;;5053700;28;20487;-68
2021/05/05 11:52:40;;;;;;;3.70;2.03;;;22.80;70.40;;;;;;5044856;28;20460;-68
2021/05/05 11:55:12;;;;;;;1.87;1.77;;;22.90;70.50;;;;;;5046804;28;20927;-68
2021/05/05 11:57:48;;;;;;;2.90;1.93;;;23.10;68.90;;;;;;5040575;28;20558;-69
2021/05/05 12:00:33;;;;;;;3.00;2.13;;;23.20;68.00;;;;;;5043223;28;20440;-68
2021/05/05 12:02:58;;;;;;;2.83;2.17;;;23.30;70.60;;;;;;5039950;28;21018;-69
2021/05/05 12:05:25;;;;;;;2.30;2.10;;;23.00;70.80;;;;;;5050540;28;20420;-68
2021/05/05 12:08:06;;;;;;;3.53;2.13;;;22.80;70.10;;;;;;5051249;28;20683;-67
2021/05/05 12:10:37;;;;;;;1.87;1.67;;;22.60;70.10;;;;;;5053982;28;20962;-67
2021/05/05 12:13:05;;;;;;;2.97;2.70;;;22.80;71.30;;;;;;5050033;28;20459;-69
2021/05/05 12:15:30;;;;;;;2.20;2.00;;;22.80;70.70;;;;;;5041886;28;20457;-69
2021/05/05 12:18:03;;;;;;;2.10;1.47;;;22.80;70.00;;;;;;5049296;28;20492;-68
2021/05/05 12:20:30;;;;;;;3.30;2.00;;;23.10;69.70;;;;;;5044485;28;20624;-69
2021/05/05 12:22:58;;;;;;;4.17;1.70;;;23.20;68.20;;;;;;5043785;28;20510;-68
2021/05/05 12:25:27;;;;;;;1.60;1.50;;;23.20;66.20;;;;;;5042102;28;20421;-68
2021/05/05 12:28:06;;;;;;;6.77;2.07;;;23.50;67.00;;;;;;5031705;28;20871;-68
2021/05/05 12:30:50;;;;;;;5.50;2.20;;;23.30;66.50;;;;;;5033395;28;20494;-68
2021/05/05 12:33:39;;;;;;;2.53;2.10;;;23.30;66.40;;;;;;5033675;28;20445;-69
2021/05/05 12:36:26;;;;;;;2.60;1.93;;;23.60;66.70;;;;;;5041536;28;20428;-68
2021/05/05 12:38:55;;;;;;;4.07;1.80;;;23.60;65.70;;;;;;5033996;28;20454;-68
2021/05/05 12:41:24;;;;;;;2.17;1.53;;;23.20;66.50;;;;;;5042525;28;20423;-68
2021/05/05 12:43:58;;;;;;;2.30;1.77;;;23.30;66.30;;;;;;5046844;28;20941;-69
2021/05/05 12:46:26;;;;;;;4.60;2.23;;;23.80;67.30;;;;;;5046441;28;20429;-69
2021/05/05 12:48:53;;;;;;;3.47;2.53;;;23.90;65.80;;;;;;5043212;28;20500;-70
2021/05/05 12:51:23;;;;;;;4.47;2.07;;;23.80;65.50;;;;;;5046129;28;20432;-68
2021/05/05 12:53:50;;;;;;;6.80;2.60;;;24.00;66.80;;;;;;5046205;28;20453;-68
2021/05/05 12:56:20;;;;;;;2.80;2.27;;;24.00;66.70;;;;;;5052925;28;20425;-69
2021/05/05 12:58:48;;;;;;;2.40;1.80;;;23.90;65.50;;;;;;5052367;28;20677;-70
2021/05/05 13:01:15;;;;;;;3.40;1.80;;;23.70;66.00;;;;;;5044159;28;20421;-68
2021/05/05 13:03:42;;;;;;;2.60;1.80;;;24.10;66.40;;;;;;5030459;28;20462;-68